sensor_id;sensor_type;location;lat;lon;timestamp;temperature;humidity
24087;DHT22;22893;50.572;7.234;2022-09-25T00:01:03;20.40;83.30
24087;DHT22;22893;50.572;7.234;2022-09-25T00:03:32;20.40;83.20
24087;DHT22;22893;50.572;7.234;2022-09-25T00:06:11;20.40;83.20
24087;DHT22;22893;50.572;7.234;2022-09-25T00:08:39;20.40;83.20
24087;DHT22;22893;50.572;7.234;2022-09-25T00:11:10;20.30;83.10
24087;DHT22;22893;50.572;7.234;2022-09-25T00:13:39;20.30;83.10
24087;DHT22;22893;50.572;7.234;2022-09-25T00:16:09;20.40;83.20
24087;DHT22;22893;50.572;7.234;2022-09-25T00:18:37;20.40;83.20
24087;DHT22;22893;50.572;7.234;2022-09-25T00:21:23;20.40;83.20
24087;DHT22;22893;50.572;7.234;2022-09-25T00:23:53;20.40;83.20
24087;DHT22;22893;50.572;7.234;2022-09-25T00:26:20;20.40;83.10
24087;DHT22;22893;50.572;7.234;2022-09-25T00:28:48;20.40;83.20
24087;DHT22;22893;50.572;7.234;2022-09-25T00:31:20;20.40;83.10
24087;DHT22;22893;50.572;7.234;2022-09-25T00:33:51;20.40;83.10
24087;DHT22;22893;50.572;7.234;2022-09-25T00:36:19;20.40;83.10
24087;DHT22;22893;50.572;7.234;2022-09-25T00:38:47;20.30;82.90
24087;DHT22;22893;50.572;7.234;2022-09-25T00:41:17;20.30;83.00
24087;DHT22;22893;50.572;7.234;2022-09-25T00:46:36;20.30;82.90
24087;DHT22;22893;50.572;7.234;2022-09-25T00:49:15;20.40;83.00
24087;DHT22;22893;50.572;7.234;2022-09-25T00:51:56;20.40;82.90
24087;DHT22;22893;50.572;7.234;2022-09-25T00:54:22;20.40;82.90
24087;DHT22;22893;50.572;7.234;2022-09-25T00:56:51;20.40;82.90
24087;DHT22;22893;50.572;7.234;2022-09-25T00:59:27;20.40;83.10
24087;DHT22;22893;50.572;7.234;2022-09-25T01:01:56;20.40;82.90
24087;DHT22;22893;50.572;7.234;2022-09-25T01:04:27;20.30;82.90
24087;DHT22;22893;50.572;7.234;2022-09-25T01:06:55;20.40;82.90
24087;DHT22;22893;50.572;7.234;2022-09-25T01:09:24;20.30;82.90
24087;DHT22;22893;50.572;7.234;2022-09-25T01:11:51;20.30;82.90
24087;DHT22;22893;50.572;7.234;2022-09-25T01:14:20;20.40;83.00
24087;DHT22;22893;50.572;7.234;2022-09-25T01:17:44;20.30;82.90
24087;DHT22;22893;50.572;7.234;2022-09-25T01:30:55;20.40;82.80
24087;DHT22;22893;50.572;7.234;2022-09-25T01:33:26;20.30;82.70
24087;DHT22;22893;50.572;7.234;2022-09-25T01:38:51;20.30;82.70
24087;DHT22;22893;50.572;7.234;2022-09-25T01:41:29;20.30;82.70
24087;DHT22;22893;50.572;7.234;2022-09-25T01:44:11;20.30;82.70
24087;DHT22;22893;50.572;7.234;2022-09-25T01:46:44;20.30;82.70
24087;DHT22;22893;50.572;7.234;2022-09-25T01:49:29;20.30;82.70
24087;DHT22;22893;50.572;7.234;2022-09-25T01:51:59;20.30;82.70
24087;DHT22;22893;50.572;7.234;2022-09-25T01:54:33;20.30;82.70
24087;DHT22;22893;50.572;7.234;2022-09-25T01:57:16;20.30;83.20
24087;DHT22;22893;50.572;7.234;2022-09-25T01:59:53;20.30;82.70
24087;DHT22;22893;50.572;7.234;2022-09-25T02:02:23;20.30;82.70
24087;DHT22;22893;50.572;7.234;2022-09-25T02:05:04;20.30;82.80
24087;DHT22;22893;50.572;7.234;2022-09-25T02:07:33;20.30;82.70
24087;DHT22;22893;50.572;7.234;2022-09-25T02:10:19;20.30;82.70
24087;DHT22;22893;50.572;7.234;2022-09-25T02:12:49;20.30;82.70
24087;DHT22;22893;50.572;7.234;2022-09-25T02:15:27;20.30;82.70
24087;DHT22;22893;50.572;7.234;2022-09-25T02:17:59;20.30;82.70
24087;DHT22;22893;50.572;7.234;2022-09-25T02:20:48;20.30;82.70
24087;DHT22;22893;50.572;7.234;2022-09-25T02:23:21;20.30;82.70
24087;DHT22;22893;50.572;7.234;2022-09-25T02:25:54;20.30;82.70
24087;DHT22;22893;50.572;7.234;2022-09-25T02:28:21;20.30;83.50
24087;DHT22;22893;50.572;7.234;2022-09-25T02:30:53;20.20;83.30
24087;DHT22;22893;50.572;7.234;2022-09-25T02:33:22;20.20;83.20
24087;DHT22;22893;50.572;7.234;2022-09-25T02:35:50;20.20;82.90
24087;DHT22;22893;50.572;7.234;2022-09-25T02:38:19;20.20;83.70
24087;DHT22;22893;50.572;7.234;2022-09-25T02:40:51;20.30;82.90
24087;DHT22;22893;50.572;7.234;2022-09-25T02:46:02;20.30;82.80
24087;DHT22;22893;50.572;7.234;2022-09-25T02:51:28;20.30;82.80
24087;DHT22;22893;50.572;7.234;2022-09-25T02:56:52;20.30;82.70
24087;DHT22;22893;50.572;7.234;2022-09-25T02:59:29;20.30;82.70
24087;DHT22;22893;50.572;7.234;2022-09-25T03:01:57;20.30;82.60
24087;DHT22;22893;50.572;7.234;2022-09-25T03:04:27;20.20;82.50
24087;DHT22;22893;50.572;7.234;2022-09-25T03:06:55;20.30;82.70
24087;DHT22;22893;50.572;7.234;2022-09-25T03:09:24;20.30;82.70
24087;DHT22;22893;50.572;7.234;2022-09-25T03:11:52;20.30;82.60
24087;DHT22;22893;50.572;7.234;2022-09-25T03:14:22;20.30;82.60
24087;DHT22;22893;50.572;7.234;2022-09-25T03:16:55;20.30;82.50
24087;DHT22;22893;50.572;7.234;2022-09-25T03:19:25;20.30;82.70
24087;DHT22;22893;50.572;7.234;2022-09-25T03:21:54;20.30;82.60
24087;DHT22;22893;50.572;7.234;2022-09-25T03:24:21;20.30;82.50
24087;DHT22;22893;50.572;7.234;2022-09-25T03:26:49;20.30;82.40
24087;DHT22;22893;50.572;7.234;2022-09-25T03:29:17;20.30;82.40
24087;DHT22;22893;50.572;7.234;2022-09-25T03:31:44;20.30;82.50
24087;DHT22;22893;50.572;7.234;2022-09-25T03:34:14;20.30;82.50
24087;DHT22;22893;50.572;7.234;2022-09-25T03:36:42;20.30;82.40
24087;DHT22;22893;50.572;7.234;2022-09-25T03:39:12;20.30;82.70
24087;DHT22;22893;50.572;7.234;2022-09-25T03:41:40;20.30;82.40
24087;DHT22;22893;50.572;7.234;2022-09-25T03:44:09;20.30;82.40
24087;DHT22;22893;50.572;7.234;2022-09-25T03:46:37;20.30;82.40
24087;DHT22;22893;50.572;7.234;2022-09-25T03:49:05;20.30;82.40
24087;DHT22;22893;50.572;7.234;2022-09-25T03:51:33;20.30;82.40
24087;DHT22;22893;50.572;7.234;2022-09-25T03:54:01;20.30;82.30
24087;DHT22;22893;50.572;7.234;2022-09-25T03:56:29;20.30;82.30
24087;DHT22;22893;50.572;7.234;2022-09-25T03:58:58;20.30;82.30
24087;DHT22;22893;50.572;7.234;2022-09-25T04:01:26;20.30;82.20
24087;DHT22;22893;50.572;7.234;2022-09-25T04:03:54;20.30;82.20
24087;DHT22;22893;50.572;7.234;2022-09-25T04:06:24;20.30;82.30
24087;DHT22;22893;50.572;7.234;2022-09-25T04:08:52;20.30;82.10
24087;DHT22;22893;50.572;7.234;2022-09-25T04:11:22;20.30;82.20
24087;DHT22;22893;50.572;7.234;2022-09-25T04:13:50;20.30;82.20
24087;DHT22;22893;50.572;7.234;2022-09-25T04:16:18;20.30;82.20
24087;DHT22;22893;50.572;7.234;2022-09-25T04:18:46;20.30;82.20
24087;DHT22;22893;50.572;7.234;2022-09-25T04:21:14;20.30;82.10
24087;DHT22;22893;50.572;7.234;2022-09-25T04:23:42;20.30;82.10
24087;DHT22;22893;50.572;7.234;2022-09-25T04:26:11;20.30;82.10
24087;DHT22;22893;50.572;7.234;2022-09-25T04:28:39;20.30;82.10
24087;DHT22;22893;50.572;7.234;2022-09-25T04:31:06;20.30;82.10
24087;DHT22;22893;50.572;7.234;2022-09-25T04:33:34;20.20;82.20
24087;DHT22;22893;50.572;7.234;2022-09-25T04:36:15;20.20;82.10
24087;DHT22;22893;50.572;7.234;2022-09-25T04:38:44;20.20;81.80
24087;DHT22;22893;50.572;7.234;2022-09-25T04:41:13;20.20;81.30
24087;DHT22;22893;50.572;7.234;2022-09-25T04:43:42;20.20;81.00
24087;DHT22;22893;50.572;7.234;2022-09-25T04:46:11;20.20;81.00
24087;DHT22;22893;50.572;7.234;2022-09-25T04:48:42;20.20;81.20
24087;DHT22;22893;50.572;7.234;2022-09-25T04:51:08;20.20;81.60
24087;DHT22;22893;50.572;7.234;2022-09-25T04:53:36;20.20;81.70
24087;DHT22;22893;50.572;7.234;2022-09-25T04:56:07;20.20;81.80
24087;DHT22;22893;50.572;7.234;2022-09-25T04:58:35;20.20;81.80
24087;DHT22;22893;50.572;7.234;2022-09-25T05:01:07;20.20;81.80
24087;DHT22;22893;50.572;7.234;2022-09-25T05:03:36;20.20;81.80
24087;DHT22;22893;50.572;7.234;2022-09-25T05:06:03;20.20;81.90
24087;DHT22;22893;50.572;7.234;2022-09-25T05:08:31;20.20;82.00
24087;DHT22;22893;50.572;7.234;2022-09-25T05:10:58;20.20;81.90
24087;DHT22;22893;50.572;7.234;2022-09-25T05:13:26;20.20;81.90
24087;DHT22;22893;50.572;7.234;2022-09-25T05:15:54;20.20;82.00
24087;DHT22;22893;50.572;7.234;2022-09-25T05:18:23;20.20;82.00
24087;DHT22;22893;50.572;7.234;2022-09-25T05:20:51;20.20;82.00
24087;DHT22;22893;50.572;7.234;2022-09-25T05:23:21;20.20;82.90
24087;DHT22;22893;50.572;7.234;2022-09-25T05:25:54;20.20;82.10
24087;DHT22;22893;50.572;7.234;2022-09-25T05:28:22;20.20;82.10
24087;DHT22;22893;50.572;7.234;2022-09-25T05:30:50;20.20;82.10
24087;DHT22;22893;50.572;7.234;2022-09-25T05:33:18;20.20;82.10
24087;DHT22;22893;50.572;7.234;2022-09-25T05:35:45;20.20;82.20
24087;DHT22;22893;50.572;7.234;2022-09-25T05:38:14;20.20;82.10
24087;DHT22;22893;50.572;7.234;2022-09-25T05:40:41;20.20;82.10
24087;DHT22;22893;50.572;7.234;2022-09-25T05:43:09;20.20;82.10
24087;DHT22;22893;50.572;7.234;2022-09-25T05:45:37;20.20;82.10
24087;DHT22;22893;50.572;7.234;2022-09-25T05:48:07;20.20;82.10
24087;DHT22;22893;50.572;7.234;2022-09-25T05:50:35;20.20;82.10
24087;DHT22;22893;50.572;7.234;2022-09-25T05:53:04;20.20;82.10
24087;DHT22;22893;50.572;7.234;2022-09-25T05:55:32;20.20;82.20
24087;DHT22;22893;50.572;7.234;2022-09-25T05:58:01;20.20;82.10
24087;DHT22;22893;50.572;7.234;2022-09-25T06:00:30;20.20;82.10
24087;DHT22;22893;50.572;7.234;2022-09-25T06:03:01;20.20;82.10
24087;DHT22;22893;50.572;7.234;2022-09-25T06:05:28;20.20;82.10
24087;DHT22;22893;50.572;7.234;2022-09-25T06:07:56;20.20;82.10
24087;DHT22;22893;50.572;7.234;2022-09-25T06:10:24;20.20;82.10
24087;DHT22;22893;50.572;7.234;2022-09-25T06:12:56;20.20;82.20
24087;DHT22;22893;50.572;7.234;2022-09-25T06:15:26;20.20;82.10
24087;DHT22;22893;50.572;7.234;2022-09-25T06:17:54;20.20;82.10
24087;DHT22;22893;50.572;7.234;2022-09-25T06:20:22;20.20;82.10
24087;DHT22;22893;50.572;7.234;2022-09-25T06:22:54;20.20;82.10
24087;DHT22;22893;50.572;7.234;2022-09-25T06:25:23;20.20;82.10
24087;DHT22;22893;50.572;7.234;2022-09-25T06:27:58;20.20;82.10
24087;DHT22;22893;50.572;7.234;2022-09-25T06:30:23;20.30;82.20
24087;DHT22;22893;50.572;7.234;2022-09-25T06:32:57;20.30;82.30
24087;DHT22;22893;50.572;7.234;2022-09-25T06:35:27;20.20;82.20
24087;DHT22;22893;50.572;7.234;2022-09-25T06:38:01;20.20;82.10
24087;DHT22;22893;50.572;7.234;2022-09-25T06:40:30;20.20;82.30
24087;DHT22;22893;50.572;7.234;2022-09-25T06:42:59;20.20;82.20
24087;DHT22;22893;50.572;7.234;2022-09-25T06:45:28;20.20;82.30
24087;DHT22;22893;50.572;7.234;2022-09-25T06:48:02;20.20;82.40
24087;DHT22;22893;50.572;7.234;2022-09-25T06:50:34;20.20;82.30
24087;DHT22;22893;50.572;7.234;2022-09-25T06:53:01;20.20;82.20
24087;DHT22;22893;50.572;7.234;2022-09-25T06:55:29;20.20;82.30
24087;DHT22;22893;50.572;7.234;2022-09-25T06:58:02;20.20;82.30
24087;DHT22;22893;50.572;7.234;2022-09-25T07:00:31;20.20;82.40
24087;DHT22;22893;50.572;7.234;2022-09-25T07:02:59;20.30;82.60
24087;DHT22;22893;50.572;7.234;2022-09-25T07:05:45;20.30;82.50
24087;DHT22;22893;50.572;7.234;2022-09-25T07:08:15;20.30;82.40
24087;DHT22;22893;50.572;7.234;2022-09-25T07:10:52;20.30;82.50
24087;DHT22;22893;50.572;7.234;2022-09-25T07:13:17;20.30;82.40
24087;DHT22;22893;50.572;7.234;2022-09-25T07:15:53;20.30;82.50
24087;DHT22;22893;50.572;7.234;2022-09-25T07:18:22;20.30;82.40
24087;DHT22;22893;50.572;7.234;2022-09-25T07:20:50;20.30;82.50
24087;DHT22;22893;50.572;7.234;2022-09-25T07:23:19;20.30;82.50
24087;DHT22;22893;50.572;7.234;2022-09-25T07:25:48;20.30;82.50
24087;DHT22;22893;50.572;7.234;2022-09-25T07:28:16;20.30;82.70
24087;DHT22;22893;50.572;7.234;2022-09-25T07:30:45;20.30;82.70
24087;DHT22;22893;50.572;7.234;2022-09-25T07:33:15;20.30;82.70
24087;DHT22;22893;50.572;7.234;2022-09-25T07:35:42;20.30;82.80
24087;DHT22;22893;50.572;7.234;2022-09-25T07:38:10;20.30;82.50
24087;DHT22;22893;50.572;7.234;2022-09-25T07:40:37;20.30;82.70
24087;DHT22;22893;50.572;7.234;2022-09-25T07:43:05;20.30;82.70
24087;DHT22;22893;50.572;7.234;2022-09-25T07:45:33;20.30;82.80
24087;DHT22;22893;50.572;7.234;2022-09-25T07:48:02;20.30;82.70
24087;DHT22;22893;50.572;7.234;2022-09-25T07:50:31;20.30;82.60
24087;DHT22;22893;50.572;7.234;2022-09-25T07:52:59;20.30;82.70
24087;DHT22;22893;50.572;7.234;2022-09-25T07:55:26;20.30;82.70
24087;DHT22;22893;50.572;7.234;2022-09-25T07:57:57;20.30;83.40
24087;DHT22;22893;50.572;7.234;2022-09-25T08:00:25;20.30;82.60
24087;DHT22;22893;50.572;7.234;2022-09-25T08:02:57;20.30;83.40
24087;DHT22;22893;50.572;7.234;2022-09-25T08:08:13;20.30;82.50
24087;DHT22;22893;50.572;7.234;2022-09-25T08:10:41;20.30;82.50
24087;DHT22;22893;50.572;7.234;2022-09-25T08:13:08;20.30;82.80
24087;DHT22;22893;50.572;7.234;2022-09-25T08:15:36;20.30;83.60
24087;DHT22;22893;50.572;7.234;2022-09-25T08:18:03;20.30;82.70
24087;DHT22;22893;50.572;7.234;2022-09-25T08:20:31;20.30;82.80
24087;DHT22;22893;50.572;7.234;2022-09-25T08:22:58;20.40;82.80
24087;DHT22;22893;50.572;7.234;2022-09-25T08:25:26;20.30;82.90
24087;DHT22;22893;50.572;7.234;2022-09-25T08:27:53;20.40;83.00
24087;DHT22;22893;50.572;7.234;2022-09-25T08:30:21;20.40;83.10
24087;DHT22;22893;50.572;7.234;2022-09-25T08:32:48;20.40;83.20
24087;DHT22;22893;50.572;7.234;2022-09-25T08:35:18;20.40;83.20
24087;DHT22;22893;50.572;7.234;2022-09-25T08:37:45;20.40;83.20
24087;DHT22;22893;50.572;7.234;2022-09-25T08:40:23;20.40;83.50
24087;DHT22;22893;50.572;7.234;2022-09-25T08:42:53;20.40;83.50
24087;DHT22;22893;50.572;7.234;2022-09-25T08:45:27;20.40;83.60
24087;DHT22;22893;50.572;7.234;2022-09-25T08:48:19;20.40;83.80
24087;DHT22;22893;50.572;7.234;2022-09-25T08:51:01;20.40;83.80
24087;DHT22;22893;50.572;7.234;2022-09-25T08:53:33;20.40;83.80
24087;DHT22;22893;50.572;7.234;2022-09-25T08:56:03;20.40;83.70
24087;DHT22;22893;50.572;7.234;2022-09-25T08:58:43;20.40;84.00
24087;DHT22;22893;50.572;7.234;2022-09-25T09:01:16;20.40;84.00
24087;DHT22;22893;50.572;7.234;2022-09-25T09:03:47;20.40;84.00
24087;DHT22;22893;50.572;7.234;2022-09-25T09:06:15;20.40;84.80
24087;DHT22;22893;50.572;7.234;2022-09-25T09:08:47;20.40;84.00
24087;DHT22;22893;50.572;7.234;2022-09-25T09:11:30;20.40;83.80
24087;DHT22;22893;50.572;7.234;2022-09-25T09:14:02;20.40;84.00
24087;DHT22;22893;50.572;7.234;2022-09-25T09:19:10;20.40;84.00
24087;DHT22;22893;50.572;7.234;2022-09-25T09:21:50;20.40;84.20
24087;DHT22;22893;50.572;7.234;2022-09-25T09:40:34;20.40;84.20
24087;DHT22;22893;50.572;7.234;2022-09-25T09:43:06;20.40;84.50
24087;DHT22;22893;50.572;7.234;2022-09-25T09:48:23;20.40;84.30
24087;DHT22;22893;50.572;7.234;2022-09-25T09:51:12;20.40;84.50
24087;DHT22;22893;50.572;7.234;2022-09-25T09:53:57;20.50;84.50
24087;DHT22;22893;50.572;7.234;2022-09-25T09:56:34;20.50;84.30
24087;DHT22;22893;50.572;7.234;2022-09-25T09:59:23;20.50;84.70
24087;DHT22;22893;50.572;7.234;2022-09-25T10:02:07;20.50;84.60
24087;DHT22;22893;50.572;7.234;2022-09-25T10:04:33;20.50;84.70
24087;DHT22;22893;50.572;7.234;2022-09-25T10:07:06;20.50;84.40
24087;DHT22;22893;50.572;7.234;2022-09-25T10:09:29;20.50;84.50
24087;DHT22;22893;50.572;7.234;2022-09-25T10:14:45;20.50;84.70
24087;DHT22;22893;50.572;7.234;2022-09-25T10:17:14;20.50;84.80
24087;DHT22;22893;50.572;7.234;2022-09-25T10:22:22;20.50;84.80
24087;DHT22;22893;50.572;7.234;2022-09-25T10:24:56;20.50;84.90
24087;DHT22;22893;50.572;7.234;2022-09-25T10:27:28;20.50;84.60
24087;DHT22;22893;50.572;7.234;2022-09-25T10:35:03;20.50;84.70
24087;DHT22;22893;50.572;7.234;2022-09-25T10:37:31;20.50;84.70
24087;DHT22;22893;50.572;7.234;2022-09-25T10:40:04;20.50;84.60
24087;DHT22;22893;50.572;7.234;2022-09-25T10:42:38;20.50;85.00
24087;DHT22;22893;50.572;7.234;2022-09-25T10:47:55;20.60;84.70
24087;DHT22;22893;50.572;7.234;2022-09-25T10:50:41;20.50;84.60
24087;DHT22;22893;50.572;7.234;2022-09-25T10:53:27;20.60;84.60
24087;DHT22;22893;50.572;7.234;2022-09-25T10:56:07;20.60;84.60
24087;DHT22;22893;50.572;7.234;2022-09-25T10:58:42;20.60;85.00
24087;DHT22;22893;50.572;7.234;2022-09-25T11:01:11;20.60;84.60
24087;DHT22;22893;50.572;7.234;2022-09-25T11:03:53;20.60;85.80
24087;DHT22;22893;50.572;7.234;2022-09-25T11:06:26;20.60;84.70
24087;DHT22;22893;50.572;7.234;2022-09-25T11:09:12;20.60;84.90
24087;DHT22;22893;50.572;7.234;2022-09-25T11:11:40;20.60;84.40
24087;DHT22;22893;50.572;7.234;2022-09-25T11:14:28;20.60;83.50
24087;DHT22;22893;50.572;7.234;2022-09-25T11:16:59;20.60;83.60
24087;DHT22;22893;50.572;7.234;2022-09-25T11:19:30;20.50;82.50
24087;DHT22;22893;50.572;7.234;2022-09-25T11:22:17;20.50;82.30
24087;DHT22;22893;50.572;7.234;2022-09-25T11:27:17;20.50;83.60
24087;DHT22;22893;50.572;7.234;2022-09-25T11:49:32;20.60;84.30
24087;DHT22;22893;50.572;7.234;2022-09-25T12:08:49;20.60;84.70
24087;DHT22;22893;50.572;7.234;2022-09-25T12:11:07;20.60;84.90
24087;DHT22;22893;50.572;7.234;2022-09-25T12:16:23;20.60;84.90
24087;DHT22;22893;50.572;7.234;2022-09-25T12:21:27;20.60;85.30
24087;DHT22;22893;50.572;7.234;2022-09-25T12:24:09;20.70;85.10
24087;DHT22;22893;50.572;7.234;2022-09-25T12:26:46;20.70;85.50
24087;DHT22;22893;50.572;7.234;2022-09-25T12:32:17;20.70;85.40
24087;DHT22;22893;50.572;7.234;2022-09-25T12:35:16;20.70;85.50
24087;DHT22;22893;50.572;7.234;2022-09-25T12:37:50;20.70;85.20
24087;DHT22;22893;50.572;7.234;2022-09-25T12:41:00;20.70;85.50
24087;DHT22;22893;50.572;7.234;2022-09-25T12:43:01;20.70;85.60
24087;DHT22;22893;50.572;7.234;2022-09-25T12:45:50;20.70;85.60
24087;DHT22;22893;50.572;7.234;2022-09-25T12:48:36;20.70;85.50
24087;DHT22;22893;50.572;7.234;2022-09-25T12:54:00;20.70;86.40
24087;DHT22;22893;50.572;7.234;2022-09-25T13:02:07;20.70;85.80
24087;DHT22;22893;50.572;7.234;2022-09-25T13:05:04;20.70;85.50
24087;DHT22;22893;50.572;7.234;2022-09-25T13:07:23;20.80;85.70
24087;DHT22;22893;50.572;7.234;2022-09-25T13:09:50;20.80;85.90
24087;DHT22;22893;50.572;7.234;2022-09-25T13:12:33;20.80;86.70
24087;DHT22;22893;50.572;7.234;2022-09-25T13:17:41;20.80;87.20
24087;DHT22;22893;50.572;7.234;2022-09-25T13:23:08;20.80;86.50
24087;DHT22;22893;50.572;7.234;2022-09-25T13:25:51;20.80;86.70
24087;DHT22;22893;50.572;7.234;2022-09-25T13:28:29;20.90;86.60
24087;DHT22;22893;50.572;7.234;2022-09-25T13:39:02;20.90;86.80
24087;DHT22;22893;50.572;7.234;2022-09-25T13:41:51;20.90;87.20
24087;DHT22;22893;50.572;7.234;2022-09-25T13:50:18;21.00;87.50
24087;DHT22;22893;50.572;7.234;2022-09-25T14:03:47;21.00;87.80
24087;DHT22;22893;50.572;7.234;2022-09-25T14:06:27;21.00;87.30
24087;DHT22;22893;50.572;7.234;2022-09-25T14:08:59;21.00;87.30
24087;DHT22;22893;50.572;7.234;2022-09-25T14:11:35;21.00;87.20
24087;DHT22;22893;50.572;7.234;2022-09-25T14:14:13;21.10;87.00
24087;DHT22;22893;50.572;7.234;2022-09-25T14:16:50;21.00;86.90
24087;DHT22;22893;50.572;7.234;2022-09-25T14:19:31;21.10;87.40
24087;DHT22;22893;50.572;7.234;2022-09-25T14:22:01;21.10;86.80
24087;DHT22;22893;50.572;7.234;2022-09-25T14:24:30;21.10;87.40
24087;DHT22;22893;50.572;7.234;2022-09-25T14:26:59;21.10;87.20
24087;DHT22;22893;50.572;7.234;2022-09-25T14:29:37;21.10;87.20
24087;DHT22;22893;50.572;7.234;2022-09-25T14:35:15;21.10;87.20
24087;DHT22;22893;50.572;7.234;2022-09-25T14:40:34;21.10;86.80
24087;DHT22;22893;50.572;7.234;2022-09-25T14:46:01;21.20;87.20
24087;DHT22;22893;50.572;7.234;2022-09-25T14:48:42;21.20;86.80
24087;DHT22;22893;50.572;7.234;2022-09-25T14:51:23;21.20;86.70
24087;DHT22;22893;50.572;7.234;2022-09-25T14:54:00;21.20;87.10
24087;DHT22;22893;50.572;7.234;2022-09-25T14:56:25;21.20;86.60
24087;DHT22;22893;50.572;7.234;2022-09-25T14:58:56;21.20;86.80
24087;DHT22;22893;50.572;7.234;2022-09-25T15:01:27;21.20;86.80
24087;DHT22;22893;50.572;7.234;2022-09-25T15:03:58;21.20;86.80
24087;DHT22;22893;50.572;7.234;2022-09-25T15:06:31;21.20;87.00
24087;DHT22;22893;50.572;7.234;2022-09-25T15:09:00;21.20;86.40
24087;DHT22;22893;50.572;7.234;2022-09-25T15:11:39;21.20;86.30
24087;DHT22;22893;50.572;7.234;2022-09-25T15:14:14;21.20;86.80
24087;DHT22;22893;50.572;7.234;2022-09-25T15:16:44;21.20;86.60
24087;DHT22;22893;50.572;7.234;2022-09-25T15:19:40;21.20;87.10
24087;DHT22;22893;50.572;7.234;2022-09-25T15:22:14;21.20;86.30
24087;DHT22;22893;50.572;7.234;2022-09-25T15:24:44;21.20;86.60
24087;DHT22;22893;50.572;7.234;2022-09-25T15:27:12;21.20;86.20
24087;DHT22;22893;50.572;7.234;2022-09-25T15:29:44;21.20;86.00
24087;DHT22;22893;50.572;7.234;2022-09-25T15:32:24;21.20;85.60
24087;DHT22;22893;50.572;7.234;2022-09-25T15:37:43;21.10;85.10
24087;DHT22;22893;50.572;7.234;2022-09-25T15:42:46;21.20;85.20
24087;DHT22;22893;50.572;7.234;2022-09-25T15:45:43;21.10;84.00
24087;DHT22;22893;50.572;7.234;2022-09-25T15:48:16;21.10;83.80
24087;DHT22;22893;50.572;7.234;2022-09-25T15:50:42;21.10;83.60
24087;DHT22;22893;50.572;7.234;2022-09-25T15:53:23;21.10;83.40
24087;DHT22;22893;50.572;7.234;2022-09-25T15:55:59;21.10;83.20
24087;DHT22;22893;50.572;7.234;2022-09-25T15:58:19;21.10;82.70
24087;DHT22;22893;50.572;7.234;2022-09-25T16:01:01;21.10;82.80
24087;DHT22;22893;50.572;7.234;2022-09-25T16:03:50;21.10;82.80
24087;DHT22;22893;50.572;7.234;2022-09-25T16:06:43;21.10;82.80
24087;DHT22;22893;50.572;7.234;2022-09-25T16:09:26;21.10;82.70
24087;DHT22;22893;50.572;7.234;2022-09-25T16:11:51;21.10;83.70
24087;DHT22;22893;50.572;7.234;2022-09-25T16:14:24;21.10;82.80
24087;DHT22;22893;50.572;7.234;2022-09-25T16:16:50;21.10;82.90
24087;DHT22;22893;50.572;7.234;2022-09-25T16:21:58;21.10;83.00
24087;DHT22;22893;50.572;7.234;2022-09-25T16:24:27;21.10;83.00
24087;DHT22;22893;50.572;7.234;2022-09-25T16:27:00;21.10;83.00
24087;DHT22;22893;50.572;7.234;2022-09-25T16:29:33;21.10;83.00
24087;DHT22;22893;50.572;7.234;2022-09-25T16:32:04;21.10;83.00
24087;DHT22;22893;50.572;7.234;2022-09-25T16:34:35;21.10;83.10
24087;DHT22;22893;50.572;7.234;2022-09-25T16:37:05;21.10;83.10
24087;DHT22;22893;50.572;7.234;2022-09-25T16:39:36;21.10;83.10
24087;DHT22;22893;50.572;7.234;2022-09-25T16:44:48;21.10;82.90
24087;DHT22;22893;50.572;7.234;2022-09-25T16:47:17;21.10;82.90
24087;DHT22;22893;50.572;7.234;2022-09-25T16:49:46;21.10;82.40
24087;DHT22;22893;50.572;7.234;2022-09-25T16:52:22;21.10;82.40
24087;DHT22;22893;50.572;7.234;2022-09-25T16:54:52;21.10;82.10
24087;DHT22;22893;50.572;7.234;2022-09-25T16:57:22;21.10;82.10
24087;DHT22;22893;50.572;7.234;2022-09-25T16:59:51;21.00;81.60
24087;DHT22;22893;50.572;7.234;2022-09-25T17:02:27;21.10;81.60
24087;DHT22;22893;50.572;7.234;2022-09-25T17:04:53;21.00;81.30
24087;DHT22;22893;50.572;7.234;2022-09-25T17:07:21;21.00;81.10
24087;DHT22;22893;50.572;7.234;2022-09-25T17:09:48;21.00;80.90
24087;DHT22;22893;50.572;7.234;2022-09-25T17:12:21;21.00;81.00
24087;DHT22;22893;50.572;7.234;2022-09-25T17:14:49;21.00;81.00
24087;DHT22;22893;50.572;7.234;2022-09-25T17:17:18;21.00;81.00
24087;DHT22;22893;50.572;7.234;2022-09-25T17:19:48;21.00;80.60
24087;DHT22;22893;50.572;7.234;2022-09-25T17:22:16;21.00;81.00
24087;DHT22;22893;50.572;7.234;2022-09-25T17:24:44;21.00;80.90
24087;DHT22;22893;50.572;7.234;2022-09-25T17:27:13;21.00;80.80
24087;DHT22;22893;50.572;7.234;2022-09-25T17:29:41;21.00;80.80
24087;DHT22;22893;50.572;7.234;2022-09-25T17:32:12;21.00;81.00
24087;DHT22;22893;50.572;7.234;2022-09-25T17:34:44;21.00;80.80
24087;DHT22;22893;50.572;7.234;2022-09-25T17:37:12;21.00;80.90
24087;DHT22;22893;50.572;7.234;2022-09-25T17:39:40;21.00;80.90
24087;DHT22;22893;50.572;7.234;2022-09-25T17:42:09;21.00;80.90
24087;DHT22;22893;50.572;7.234;2022-09-25T17:44:37;21.00;81.00
24087;DHT22;22893;50.572;7.234;2022-09-25T17:47:09;21.00;80.90
24087;DHT22;22893;50.572;7.234;2022-09-25T17:49:38;21.00;81.00
24087;DHT22;22893;50.572;7.234;2022-09-25T17:52:06;21.00;80.90
24087;DHT22;22893;50.572;7.234;2022-09-25T17:54:33;21.00;81.00
24087;DHT22;22893;50.572;7.234;2022-09-25T17:57:01;21.00;80.70
24087;DHT22;22893;50.572;7.234;2022-09-25T17:59:28;21.00;80.80
24087;DHT22;22893;50.572;7.234;2022-09-25T18:01:56;21.00;80.80
24087;DHT22;22893;50.572;7.234;2022-09-25T18:04:25;21.00;81.00
24087;DHT22;22893;50.572;7.234;2022-09-25T18:06:52;21.00;81.00
24087;DHT22;22893;50.572;7.234;2022-09-25T18:09:22;21.00;81.00
24087;DHT22;22893;50.572;7.234;2022-09-25T18:11:49;20.90;76.40
24087;DHT22;22893;50.572;7.234;2022-09-25T18:14:18;20.80;76.60
24087;DHT22;22893;50.572;7.234;2022-09-25T18:16:45;20.70;77.00
24087;DHT22;22893;50.572;7.234;2022-09-25T18:19:18;20.60;77.20
24087;DHT22;22893;50.572;7.234;2022-09-25T18:22:04;20.60;77.10
24087;DHT22;22893;50.572;7.234;2022-09-25T18:24:50;20.50;77.40
24087;DHT22;22893;50.572;7.234;2022-09-25T18:27:19;20.50;77.30
24087;DHT22;22893;50.572;7.234;2022-09-25T18:29:47;20.50;77.80
24087;DHT22;22893;50.572;7.234;2022-09-25T18:32:15;20.50;77.90
24087;DHT22;22893;50.572;7.234;2022-09-25T18:34:43;20.50;79.30
24087;DHT22;22893;50.572;7.234;2022-09-25T18:37:10;20.60;79.80
24087;DHT22;22893;50.572;7.234;2022-09-25T18:39:38;20.60;80.10
24087;DHT22;22893;50.572;7.234;2022-09-25T18:42:06;20.60;80.10
24087;DHT22;22893;50.572;7.234;2022-09-25T18:44:33;20.70;80.20
24087;DHT22;22893;50.572;7.234;2022-09-25T18:47:02;20.70;80.40